Time;durP1;ratioP1;P1;durP2;ratioP2;P2;SDS_P1;SDS_P2;PMS_P1;PMS_P2;Temp;Humidity;BMP_temperature;BMP_pressure;BME280_temperature;BME280_humidity;BME280_pressure;Samples;Min_cycle;Max_cycle;Signal;HPM_P1;HPM_P2
2021/03/02 00:02:14;;;;;;;34.87;18.67;;;;;;;1.09;84.33;102842.75;5075977;28;20257;-69
2021/03/02 00:04:42;;;;;;;35.37;19.80;;;;;;;1.10;84.91;102836.63;5074403;28;20174;-68
2021/03/02 00:07:08;;;;;;;39.73;20.80;;;;;;;1.08;84.73;102833.97;5074526;28;20182;-68
2021/03/02 00:09:33;;;;;;;35.03;18.97;;;;;;;1.09;84.80;102832.22;5074426;28;20180;-68
2021/03/02 00:11:58;;;;;;;37.13;19.23;;;;;;;1.02;84.80;102838.22;5074234;28;20685;-69
2021/03/02 00:14:23;;;;;;;34.83;19.17;;;;;;;0.97;84.31;102845.16;5075790;28;20174;-68
2021/03/02 00:16:56;;;;;;;37.57;20.80;;;;;;;0.92;85.40;102843.31;5075530;28;20200;-67
2021/03/02 00:19:27;;;;;;;34.07;19.80;;;;;;;0.91;85.37;102846.81;5074207;28;20171;-68
2021/03/02 00:21:58;;;;;;;35.93;19.00;;;;;;;0.88;85.56;102844.13;5075583;28;20683;-69
2021/03/02 00:24:36;;;;;;;38.63;20.20;;;;;;;0.87;85.21;102858.13;5074683;28;20156;-68
2021/03/02 00:27:02;;;;;;;42.23;21.43;;;;;;;0.85;84.97;102844.06;5075361;28;20239;-70
2021/03/02 00:29:28;;;;;;;40.83;20.30;;;;;;;0.79;85.42;102841.34;5075900;28;20179;-67
2021/03/02 00:31:54;;;;;;;38.20;20.30;;;;;;;0.80;85.17;102845.75;5073867;28;20211;-68
2021/03/02 00:34:19;;;;;;;36.33;19.80;;;;;;;0.80;85.89;102842.22;5075492;28;20174;-68
2021/03/02 00:36:44;;;;;;;36.23;19.97;;;;;;;0.79;85.75;102849.22;5075152;28;20195;-68
2021/03/02 00:39:09;;;;;;;41.90;20.37;;;;;;;0.80;85.80;102851.00;5073797;28;20202;-68
2021/03/02 00:41:35;;;;;;;38.87;21.37;;;;;;;0.76;85.46;102854.41;5074125;28;20644;-68
2021/03/02 00:44:00;;;;;;;37.00;19.87;;;;;;;0.76;85.81;102856.16;5074919;28;20186;-68
2021/03/02 00:46:25;;;;;;;44.53;21.23;;;;;;;0.73;85.77;102848.19;5074973;28;20203;-68
2021/03/02 00:48:51;;;;;;;41.83;22.20;;;;;;;0.74;85.68;102847.34;5073932;28;20171;-68
2021/03/02 00:51:17;;;;;;;37.90;20.57;;;;;;;0.74;85.85;102852.59;5073443;28;20199;-68
2021/03/02 00:53:42;;;;;;;40.53;21.13;;;;;;;0.71;86.00;102845.53;5073722;28;20695;-68
2021/03/02 00:56:08;;;;;;;38.40;20.70;;;;;;;0.66;85.73;102849.81;5074620;28;20195;-68
2021/03/02 00:58:33;;;;;;;35.60;21.40;;;;;;;0.63;85.68;102848.03;5072276;28;20171;-68
2021/03/02 01:00:58;;;;;;;38.53;19.63;;;;;;;0.62;85.82;102846.25;5074719;28;20176;-68
2021/03/02 01:03:24;;;;;;;36.80;19.77;;;;;;;0.57;86.00;102841.75;5075517;28;20174;-68
2021/03/02 01:05:49;;;;;;;40.73;23.00;;;;;;;0.56;85.53;102834.72;5074387;28;20563;-68
2021/03/02 01:08:14;;;;;;;36.27;19.60;;;;;;;0.53;86.04;102837.31;5073342;28;20176;-69
2021/03/02 01:10:39;;;;;;;41.73;20.40;;;;;;;0.53;86.44;102835.56;5074406;28;20225;-68
2021/03/02 01:13:05;;;;;;;40.67;22.23;;;;;;;0.56;86.37;102845.25;5074243;28;20196;-68
2021/03/02 01:15:30;;;;;;;40.30;21.83;;;;;;;0.55;86.09;102835.59;5074219;28;20187;-68
2021/03/02 01:17:55;;;;;;;34.33;20.03;;;;;;;0.55;86.57;102840.84;5073311;28;20179;-68
2021/03/02 01:20:21;;;;;;;41.93;21.67;;;;;;;0.56;86.37;102834.72;5073054;28;20183;-68
2021/03/02 01:22:46;;;;;;;42.90;21.00;;;;;;;0.54;86.18;102836.44;5074282;28;20175;-68
2021/03/02 01:25:12;;;;;;;40.50;20.60;;;;;;;0.54;86.12;102833.81;5072712;28;20558;-68
2021/03/02 01:27:37;;;;;;;41.07;21.33;;;;;;;0.51;86.07;102828.50;5056582;28;20170;-68
2021/03/02 01:30:06;;;;;;;41.90;22.80;;;;;;;0.54;86.61;102839.06;5072572;28;20203;-68
2021/03/02 01:32:31;;;;;;;41.77;21.00;;;;;;;0.52;86.02;102843.41;5074077;28;20214;-68
2021/03/02 01:34:56;;;;;;;40.27;21.17;;;;;;;0.48;86.28;102841.59;5074101;28;20179;-67
2021/03/02 01:37:22;;;;;;;42.63;21.17;;;;;;;0.46;86.23;102838.03;5072482;28;20632;-68
2021/03/02 01:39:47;;;;;;;42.53;21.37;;;;;;;0.45;86.33;102831.00;5074361;28;20181;-68
2021/03/02 01:42:12;;;;;;;43.77;21.17;;;;;;;0.46;86.66;102841.56;5073737;28;20162;-68
2021/03/02 01:44:38;;;;;;;42.00;21.57;;;;;;;0.46;86.87;102840.66;5073843;28;20517;-68
2021/03/02 01:47:03;;;;;;;39.00;19.70;;;;;;;0.46;86.40;102836.28;5073515;28;20202;-68
2021/03/02 01:49:28;;;;;;;44.63;21.87;;;;;;;0.45;86.58;102831.91;5073630;28;20196;-68
2021/03/02 01:51:54;;;;;;;37.30;21.53;;;;;;;0.46;86.67;102830.16;5073368;28;20208;-68
2021/03/02 01:54:19;;;;;;;43.80;23.30;;;;;;;0.45;86.75;102828.38;5073594;28;20185;-67
2021/03/02 01:56:45;;;;;;;40.73;21.63;;;;;;;0.45;86.55;102828.38;5073279;28;20691;-67
2021/03/02 01:59:11;;;;;;;45.10;23.73;;;;;;;0.46;86.67;102822.28;5072351;28;20198;-67
2021/03/02 02:01:37;;;;;;;38.03;20.80;;;;;;;0.45;86.50;102817.88;5072218;28;20578;-68
2021/03/02 02:04:12;;;;;;;41.13;22.23;;;;;;;0.46;86.67;102814.38;5072242;28;20172;-68
2021/03/02 02:06:48;;;;;;;39.60;22.00;;;;;;;0.46;86.14;102820.53;5073554;28;20663;-68
2021/03/02 02:09:39;;;;;;;45.47;21.13;;;;;;;0.41;86.02;102816.94;5071957;28;20170;-68
2021/03/02 02:12:07;;;;;;;39.60;20.23;;;;;;;0.38;86.40;102814.25;5072387;28;20184;-68
2021/03/02 02:14:40;;;;;;;40.60;20.73;;;;;;;0.36;86.29;102815.91;5061060;28;20175;-68
2021/03/02 02:17:09;;;;;;;46.57;21.53;;;;;;;0.34;86.46;102807.13;5094307;28;20170;-68
2021/03/02 02:19:45;;;;;;;43.20;22.93;;;;;;;0.32;86.25;102812.34;5090718;28;20182;-68
2021/03/02 02:22:22;;;;;;;43.17;21.27;;;;;;;0.34;86.38;102808.88;5073439;28;20196;-68
2021/03/02 02:25:13;;;;;;;40.20;22.07;;;;;;;0.30;86.14;102805.28;5072575;28;20175;-68
2021/03/02 02:27:38;;;;;;;41.03;22.37;;;;;;;0.31;86.27;102805.31;5055641;28;20186;-68
2021/03/02 02:30:06;;;;;;;40.83;22.07;;;;;;;0.30;86.35;102803.56;5073896;28;20171;-68
2021/03/02 02:32:32;;;;;;;41.33;21.17;;;;;;;0.27;86.64;102803.50;5055213;28;20203;-67
2021/03/02 02:35:00;;;;;;;45.10;22.23;;;;;;;0.28;86.08;102794.75;5055334;28;20180;-68
2021/03/02 02:37:26;;;;;;;41.97;22.73;;;;;;;0.22;86.62;102789.38;5072766;28;20179;-68
2021/03/02 02:39:52;;;;;;;43.63;22.60;;;;;;;0.23;86.50;102787.63;5072043;28;20465;-67
2021/03/02 02:42:18;;;;;;;39.57;21.90;;;;;;;0.20;86.40;102791.09;5071662;28;20197;-68
2021/03/02 02:44:43;;;;;;;42.77;22.70;;;;;;;0.17;86.75;102782.28;5071741;28;20258;-67
2021/03/02 02:47:08;;;;;;;43.03;20.90;;;;;;;0.14;86.17;102779.59;5072097;28;20186;-68
2021/03/02 02:49:34;;;;;;;41.23;20.30;;;;;;;0.10;86.28;102777.75;5071911;28;20179;-68
2021/03/02 02:52:00;;;;;;;42.13;22.13;;;;;;;0.08;86.87;102785.59;5072394;28;20252;-68
2021/03/02 02:54:26;;;;;;;40.47;21.10;;;;;;;0.02;87.15;102780.22;5072083;28;20658;-68
2021/03/02 02:56:52;;;;;;;42.07;22.50;;;;;;;0.00;87.00;102781.94;5073073;28;20269;-68
2021/03/02 02:59:17;;;;;;;45.50;23.00;;;;;;;0.01;87.07;102785.44;5054912;28;20206;-68
2021/03/02 03:01:45;;;;;;;41.90;21.63;;;;;;;-0.02;87.12;102791.47;5072920;28;20198;-68
2021/03/02 03:04:22;;;;;;;41.70;21.93;;;;;;;-0.02;87.20;102791.47;5071535;28;20221;-68
2021/03/02 03:06:50;;;;;;;50.43;25.63;;;;;;;-0.04;87.67;102787.94;5072837;28;20210;-68
2021/03/02 03:09:16;;;;;;;46.67;22.17;;;;;;;-0.06;87.57;102789.63;5071508;28;20229;-68
2021/03/02 03:11:47;;;;;;;45.90;22.90;;;;;;;-0.08;87.66;102794.88;5071429;28;20171;-68
2021/03/02 03:14:13;;;;;;;39.17;19.73;;;;;;;-0.08;87.74;102794.88;5071692;28;20171;-68
2021/03/02 03:16:43;;;;;;;43.40;22.63;;;;;;;-0.06;87.27;102792.28;5054736;28;20191;-68
2021/03/02 03:19:14;;;;;;;44.73;20.93;;;;;;;-0.12;87.55;102787.78;5071521;28;20664;-68
2021/03/02 03:21:40;;;;;;;47.33;23.27;;;;;;;-0.11;87.81;102784.28;5073806;28;20173;-68
2021/03/02 03:24:07;;;;;;;45.03;21.80;;;;;;;-0.10;87.71;102786.06;5075110;28;20186;-68
2021/03/02 03:26:33;;;;;;;39.17;20.63;;;;;;;-0.11;87.51;102791.28;5075393;28;20191;-68
2021/03/02 03:29:00;;;;;;;44.73;23.03;;;;;;;-0.10;87.86;102790.44;5058575;28;20527;-68
2021/03/02 03:31:25;;;;;;;40.30;21.30;;;;;;;-0.14;87.60;102796.47;5075306;28;20197;-68
2021/03/02 03:33:51;;;;;;;43.67;22.53;;;;;;;-0.15;87.66;102794.69;5075234;28;20198;-68
2021/03/02 03:36:17;;;;;;;51.27;24.17;;;;;;;-0.14;87.74;102788.59;5074893;28;20244;-68
2021/03/02 03:38:42;;;;;;;43.20;22.23;;;;;;;-0.14;87.69;102788.59;5076442;28;20167;-68
2021/03/02 03:41:08;;;;;;;50.07;23.53;;;;;;;-0.16;87.70;102795.56;5076260;28;20244;-68
2021/03/02 03:43:33;;;;;;;50.63;24.97;;;;;;;-0.16;87.65;102795.56;5074858;28;20191;-68
2021/03/02 03:45:58;;;;;;;44.90;22.60;;;;;;;-0.15;87.34;102792.06;5075642;28;20206;-68
2021/03/02 03:48:24;;;;;;;46.37;23.57;;;;;;;-0.16;87.54;102783.31;5076277;28;20258;-68
2021/03/02 03:50:49;;;;;;;46.53;22.90;;;;;;;-0.15;87.40;102782.47;5074632;28;20183;-68
2021/03/02 03:53:15;;;;;;;45.43;22.47;;;;;;;-0.15;87.53;102777.22;5074747;28;20198;-68
2021/03/02 03:55:43;;;;;;;47.03;22.67;;;;;;;-0.17;87.80;102783.28;5075089;28;20248;-68
2021/03/02 03:58:09;;;;;;;42.80;22.77;;;;;;;-0.19;87.72;102788.50;5074829;28;20167;-68
2021/03/02 04:00:35;;;;;;;46.77;23.87;;;;;;;-0.16;87.73;102790.31;5074923;28;20175;-68
2021/03/02 04:03:02;;;;;;;46.63;23.40;;;;;;;-0.16;87.96;102785.94;5075172;28;20220;-69
2021/03/02 04:05:27;;;;;;;48.10;23.07;;;;;;;-0.13;87.70;102788.63;5075402;28;20674;-68
2021/03/02 04:07:53;;;;;;;50.80;24.50;;;;;;;-0.06;87.80;102792.28;5076349;28;20179;-68
2021/03/02 04:10:18;;;;;;;53.53;23.97;;;;;;;0.02;88.02;102789.84;5076000;28;20170;-68
2021/03/02 04:12:46;;;;;;;54.33;24.77;;;;;;;0.15;88.44;102787.50;5057623;28;20677;-68
2021/03/02 04:15:15;;;;;;;50.93;24.43;;;;;;;0.30;88.08;102782.53;5075266;28;20184;-68
2021/03/02 04:17:52;;;;;;;48.50;24.53;;;;;;;0.47;88.56;102784.63;5075369;28;20167;-68
2021/03/02 04:20:17;;;;;;;50.00;24.23;;;;;;;0.61;88.40;102786.66;5075073;28;20249;-68
2021/03/02 04:22:42;;;;;;;47.10;23.80;;;;;;;0.65;87.73;102795.47;5075115;28;20765;-68
2021/03/02 04:25:08;;;;;;;53.73;24.77;;;;;;;0.73;87.63;102788.63;5074130;28;20191;-68
2021/03/02 04:27:34;;;;;;;50.00;24.00;;;;;;;0.68;86.27;102790.28;5075755;28;20183;-68
2021/03/02 04:29:59;;;;;;;46.80;22.93;;;;;;;0.71;86.84;102792.09;5074460;28;20424;-68
2021/03/02 04:32:24;;;;;;;48.17;22.67;;;;;;;0.74;86.66;102784.25;5074607;28;20195;-68
2021/03/02 04:34:50;;;;;;;43.43;22.67;;;;;;;0.75;87.00;102788.69;5074965;28;20639;-68
2021/03/02 04:37:15;;;;;;;45.37;23.73;;;;;;;0.73;87.04;102788.63;5074750;28;20167;-68
2021/03/02 04:39:40;;;;;;;49.40;24.00;;;;;;;0.75;87.71;102781.69;5075011;28;20211;-68
2021/03/02 04:42:06;;;;;;;50.60;24.73;;;;;;;0.82;87.62;102780.94;5074840;28;20216;-68
2021/03/02 04:44:31;;;;;;;48.77;23.90;;;;;;;0.83;87.93;102780.06;5073501;28;20176;-68
2021/03/02 04:46:57;;;;;;;48.07;22.60;;;;;;;0.86;87.93;102788.00;5073562;28;20250;-68
2021/03/02 04:49:23;;;;;;;48.43;23.13;;;;;;;0.88;88.23;102788.91;5074388;28;20167;-68
2021/03/02 04:51:48;;;;;;;39.10;22.20;;;;;;;0.89;88.09;102788.06;5073419;28;20244;-68
2021/03/02 04:54:13;;;;;;;48.97;23.50;;;;;;;0.92;88.39;102777.59;5073317;28;20685;-68
2021/03/02 04:56:39;;;;;;;46.97;23.00;;;;;;;0.99;88.49;102785.59;5074573;28;20195;-68
2021/03/02 04:59:04;;;;;;;63.00;24.10;;;;;;;0.98;88.21;102774.19;5073289;28;20709;-70
2021/03/02 05:01:29;;;;;;;48.23;23.63;;;;;;;0.97;88.56;102768.91;5073336;28;20172;-68
2021/03/02 05:03:54;;;;;;;60.47;23.50;;;;;;;0.91;88.25;102767.94;5073213;28;20183;-69
2021/03/02 05:06:20;;;;;;;42.67;23.83;;;;;;;0.90;88.00;102768.81;5074558;28;20196;-68
2021/03/02 05:08:45;;;;;;;43.30;22.53;;;;;;;0.87;88.18;102768.75;5074709;28;20183;-68
2021/03/02 05:11:10;;;;;;;65.17;25.20;;;;;;;0.81;88.01;102776.53;5074189;28;20643;-68
2021/03/02 05:13:36;;;;;;;74.30;23.93;;;;;;;0.78;88.34;102776.47;5073174;28;20192;-69
2021/03/02 05:16:01;;;;;;;37.27;22.30;;;;;;;0.88;88.91;102775.78;5074331;28;20214;-68
2021/03/02 05:18:26;;;;;;;42.27;23.67;;;;;;;1.00;89.12;102782.97;5074385;28;20671;-68
2021/03/02 05:20:52;;;;;;;41.33;23.37;;;;;;;1.04;88.61;102787.44;5076562;28;20175;-67
2021/03/02 05:23:17;;;;;;;52.63;21.10;;;;;;;1.00;88.72;102790.00;5093642;28;20194;-68
2021/03/02 05:25:42;;;;;;;50.83;23.90;;;;;;;1.03;88.73;102787.41;5093421;28;20196;-68
2021/03/02 05:28:07;;;;;;;43.33;21.83;;;;;;;1.00;88.24;102782.09;5056851;28;20187;-68
2021/03/02 05:30:33;;;;;;;46.23;21.80;;;;;;;0.96;87.60;102790.78;5073560;28;20180;-68
2021/03/02 05:32:58;;;;;;;44.53;21.07;;;;;;;0.98;88.07;102795.22;5074430;28;20666;-67
2021/03/02 05:35:23;;;;;;;37.47;20.20;;;;;;;1.01;88.43;102794.38;5074765;28;20191;-67
2021/03/02 05:37:49;;;;;;;40.17;19.57;;;;;;;1.01;88.54;102797.91;5074447;28;20171;-68
2021/03/02 05:40:14;;;;;;;52.33;22.97;;;;;;;1.02;87.98;102796.16;5074694;28;20179;-67
2021/03/02 05:42:39;;;;;;;43.07;22.33;;;;;;;1.04;88.37;102799.69;5074301;28;20755;-68
2021/03/02 05:45:05;;;;;;;45.23;23.03;;;;;;;1.05;87.95;102804.09;5073508;28;20207;-67
2021/03/02 05:47:33;;;;;;;43.57;21.07;;;;;;;1.08;88.13;102801.53;5056289;28;20171;-67
2021/03/02 05:49:58;;;;;;;56.07;20.93;;;;;;;1.10;88.18;102810.31;5074161;28;20264;-67
2021/03/02 05:52:24;;;;;;;40.97;20.60;;;;;;;1.13;87.81;102810.41;5072855;28;20573;-67
2021/03/02 05:54:51;;;;;;;36.30;20.57;;;;;;;1.21;88.02;102809.66;5056068;28;20190;-68
2021/03/02 05:57:17;;;;;;;42.37;22.00;;;;;;;1.33;88.49;102814.25;5072710;28;20174;-68
2021/03/02 05:59:42;;;;;;;32.07;18.90;;;;;;;1.44;88.54;102807.41;5072888;28;20185;-67
2021/03/02 06:02:07;;;;;;;35.80;19.97;;;;;;;1.48;88.15;102817.09;5073165;28;20173;-68
2021/03/02 06:04:33;;;;;;;79.43;21.20;;;;;;;1.47;87.90;102810.06;5073819;28;20183;-68
2021/03/02 06:07:02;;;;;;;40.50;19.37;;;;;;;1.47;88.51;102817.97;5072617;28;20199;-68
2021/03/02 06:09:29;;;;;;;39.67;21.07;;;;;;;1.51;88.31;102819.81;5073427;28;20627;-67
2021/03/02 06:12:05;;;;;;;190.33;26.63;;;;;;;1.24;86.76;102820.25;5073329;28;20197;-67
2021/03/02 06:14:33;;;;;;;57.43;20.07;;;;;;;1.23;87.73;102817.59;5072713;28;20179;-68
2021/03/02 06:16:58;;;;;;;119.00;22.63;;;;;;;1.26;88.34;102822.91;5073560;28;20200;-68
2021/03/02 06:19:44;;;;;;;37.40;20.43;;;;;;;1.31;88.38;102829.13;5073465;28;20201;-68
2021/03/02 06:22:33;;;;;;;74.07;22.33;;;;;;;1.26;88.18;102820.25;5071839;28;20643;-69
2021/03/02 06:24:59;;;;;;;42.97;21.60;;;;;;;1.36;87.95;102834.44;5072457;28;20177;-69
2021/03/02 06:27:24;;;;;;;35.63;20.10;;;;;;;1.41;88.08;102827.50;5073253;28;20599;-68
2021/03/02 06:30:15;;;;;;;41.33;20.00;;;;;;;1.43;87.81;102821.41;5073428;28;20210;-68
2021/03/02 06:32:41;;;;;;;32.43;19.50;;;;;;;1.47;87.81;102822.34;5073219;28;20722;-69
2021/03/02 06:35:08;;;;;;;40.80;19.13;;;;;;;1.51;87.90;102832.09;5054883;28;20519;-68
2021/03/02 06:37:44;;;;;;;50.40;18.67;;;;;;;1.54;87.93;102832.13;5071697;28;20181;-69
2021/03/02 06:40:12;;;;;;;30.17;18.13;;;;;;;1.60;87.80;102839.25;5073195;28;20297;-69
2021/03/02 06:42:42;;;;;;;27.20;16.53;;;;;;;1.65;87.90;102840.19;5072699;28;20175;-68
2021/03/02 06:45:10;;;;;;;32.40;17.07;;;;;;;1.68;88.02;102837.59;5072929;28;20638;-68
2021/03/02 06:47:38;;;;;;;30.63;17.53;;;;;;;1.69;87.64;102837.63;5072087;28;20164;-68
2021/03/02 06:50:11;;;;;;;28.57;17.73;;;;;;;1.70;87.50;102835.88;5056007;28;20188;-68
2021/03/02 06:52:38;;;;;;;36.00;18.17;;;;;;;1.67;87.18;102838.47;5072781;28;20237;-68
2021/03/02 06:55:26;;;;;;;25.20;17.40;;;;;;;1.68;87.83;102832.34;5074312;28;20202;-68
2021/03/02 06:57:51;;;;;;;28.37;17.77;;;;;;;1.67;87.62;102839.34;5077154;28;20186;-68
2021/03/02 07:00:31;;;;;;;37.47;16.63;;;;;;;1.72;87.79;102842.06;5077348;28;20250;-68
2021/03/02 07:02:56;;;;;;;22.57;14.80;;;;;;;1.79;88.16;102847.44;5076990;28;20224;-68
2021/03/02 07:05:21;;;;;;;25.13;16.23;;;;;;;1.81;87.84;102850.09;5076787;28;20239;-68
2021/03/02 07:07:54;;;;;;;22.93;14.73;;;;;;;1.89;87.69;102848.47;5078627;28;20172;-69
2021/03/02 07:10:19;;;;;;;32.77;15.87;;;;;;;1.86;87.40;102848.44;5081003;28;20162;-68
2021/03/02 07:12:45;;;;;;;25.77;15.57;;;;;;;1.85;87.33;102841.38;5075507;28;20230;-69
2021/03/02 07:15:12;;;;;;;25.37;14.90;;;;;;;1.86;88.13;102849.31;5075039;28;20216;-68
2021/03/02 07:17:39;;;;;;;43.87;17.40;;;;;;;1.87;87.82;102851.09;5075250;28;20200;-67
2021/03/02 07:20:05;;;;;;;21.27;14.13;;;;;;;1.91;87.79;102853.75;5076572;28;20173;-68
2021/03/02 07:22:32;;;;;;;22.30;13.23;;;;;;;1.94;87.75;102851.19;5075106;28;20173;-68
2021/03/02 07:25:01;;;;;;;22.23;15.17;;;;;;;1.88;87.77;102842.31;5078797;28;20201;-69
2021/03/02 07:27:26;;;;;;;209.87;20.63;;;;;;;1.77;86.68;102846.53;5076329;28;20267;-67
2021/03/02 07:29:52;;;;;;;46.97;16.00;;;;;;;1.80;87.52;102841.31;5075127;28;20263;-67
2021/03/02 07:32:18;;;;;;;20.23;13.93;;;;;;;1.82;87.59;102857.13;5076947;28;20192;-68
2021/03/02 07:34:45;;;;;;;23.90;15.40;;;;;;;1.85;87.20;102852.78;5075281;28;20271;-68
2021/03/02 07:37:10;;;;;;;20.70;13.97;;;;;;;1.83;87.29;102845.72;5074965;28;20203;-68
2021/03/02 07:39:35;;;;;;;17.77;11.70;;;;;;;1.83;87.44;102845.72;5075721;28;20649;-68
2021/03/02 07:42:02;;;;;;;23.40;14.53;;;;;;;1.87;86.86;102851.09;5076223;28;20175;-67
2021/03/02 07:45:06;;;;;;;22.33;15.13;;;;;;;1.90;87.35;102852.88;5075989;28;20166;-67
2021/03/02 07:47:53;;;;;;;23.67;14.57;;;;;;;1.97;87.37;102854.75;5076535;28;20164;-68
2021/03/02 07:50:21;;;;;;;20.33;13.90;;;;;;;2.02;87.79;102845.16;5075822;28;20225;-68
2021/03/02 07:52:47;;;;;;;22.77;15.33;;;;;;;2.11;87.99;102855.81;5074664;28;20196;-68
2021/03/02 07:55:18;;;;;;;26.97;16.47;;;;;;;2.21;87.85;102856.81;5075800;28;20200;-67
2021/03/02 07:57:43;;;;;;;30.13;17.27;;;;;;;2.31;87.53;102864.00;5075755;28;20657;-68
2021/03/02 08:00:14;;;;;;;30.70;16.40;;;;;;;2.32;86.79;102859.63;5076161;28;20173;-68
2021/03/02 08:02:40;;;;;;;32.90;16.90;;;;;;;2.29;86.23;102859.56;5076514;28;20177;-69
2021/03/02 08:05:27;;;;;;;30.47;16.33;;;;;;;2.32;86.38;102856.97;5074674;28;20198;-69
2021/03/02 08:08:27;;;;;;;20.83;14.00;;;;;;;2.32;86.95;102856.97;5075029;28;20181;-69
2021/03/02 08:10:54;;;;;;;21.50;14.63;;;;;;;2.36;86.67;102864.06;5075534;28;20162;-69
2021/03/02 08:13:39;;;;;;;27.57;16.07;;;;;;;2.46;86.62;102863.31;5075331;28;20197;-67
2021/03/02 08:16:13;;;;;;;26.53;15.13;;;;;;;2.59;87.23;102864.31;5075595;28;20559;-69
2021/03/02 08:18:40;;;;;;;20.90;14.47;;;;;;;2.61;86.15;102865.25;5075840;28;20185;-68
2021/03/02 08:21:06;;;;;;;21.43;13.93;;;;;;;2.64;86.87;102863.53;5074822;28;20192;-68
2021/03/02 08:23:55;;;;;;;18.40;12.90;;;;;;;2.81;86.70;102861.09;5076208;28;20213;-68
2021/03/02 08:26:22;;;;;;;73.17;17.30;;;;;;;2.69;85.64;102861.84;5076449;28;20198;-68
2021/03/02 08:29:05;;;;;;;25.07;15.30;;;;;;;2.74;86.52;102854.88;5074948;28;20165;-67
2021/03/02 08:31:31;;;;;;;53.87;14.47;;;;;;;2.78;86.09;102861.06;5086334;28;20188;-69
2021/03/02 08:34:00;;;;;;;19.43;12.20;;;;;;;2.82;85.85;102861.09;5098302;28;20206;-69
2021/03/02 08:36:26;;;;;;;41.83;13.33;;;;;;;2.71;86.22;102864.50;5085088;28;20661;-68
2021/03/02 08:38:52;;;;;;;14.00;10.37;;;;;;;2.89;86.96;102874.34;5077146;28;20240;-68
2021/03/02 08:41:34;;;;;;;18.77;12.50;;;;;;;2.97;86.69;102877.97;5074842;28;20173;-69
2021/03/02 08:44:01;;;;;;;15.27;10.23;;;;;;;2.97;86.75;102876.22;5075290;28;20659;-67
2021/03/02 08:46:28;;;;;;;19.17;14.53;;;;;;;2.96;87.17;102873.56;5075390;28;20570;-68
2021/03/02 08:48:54;;;;;;;29.13;16.77;;;;;;;3.01;87.13;102866.59;5075184;28;20170;-68
2021/03/02 08:51:24;;;;;;;22.93;15.87;;;;;;;3.12;87.34;102880.78;5075490;28;20216;-69
2021/03/02 08:53:50;;;;;;;68.93;17.23;;;;;;;3.25;86.15;102885.31;5074494;28;20682;-67
2021/03/02 08:56:21;;;;;;;22.27;14.60;;;;;;;3.19;86.20;102877.31;5074952;28;20190;-68
2021/03/02 08:58:49;;;;;;;156.37;18.03;;;;;;;3.11;84.66;102879.00;5074774;28;20175;-68
2021/03/02 09:01:21;;;;;;;37.73;12.20;;;;;;;3.33;85.93;102882.72;5073248;28;20167;-68
2021/03/02 09:03:46;;;;;;;85.63;20.43;;;;;;;3.40;85.66;102880.19;5073409;28;20667;-68
2021/03/02 09:06:17;;;;;;;46.83;17.10;;;;;;;3.47;85.54;102885.53;5074387;28;20192;-67
2021/03/02 09:09:09;;;;;;;43.27;14.93;;;;;;;3.59;85.40;102886.50;5074648;28;20151;-68
2021/03/02 09:11:42;;;;;;;31.00;13.90;;;;;;;3.66;84.25;102884.78;5073535;28;20655;-68
2021/03/02 09:14:11;;;;;;;225.80;21.93;;;;;;;3.66;83.00;102877.75;5080784;28;20190;-68
2021/03/02 09:16:50;;;;;;;23.37;12.43;;;;;;;3.87;85.02;102886.72;5074568;28;20194;-67
2021/03/02 09:19:21;;;;;;;17.77;12.77;;;;;;;4.00;84.33;102884.16;5073848;28;20175;-68
2021/03/02 09:22:07;;;;;;;24.90;13.20;;;;;;;4.18;83.96;102887.81;5073402;28;20154;-68
2021/03/02 09:24:36;;;;;;;125.40;18.53;;;;;;;4.07;81.94;102878.03;5073592;28;20166;-68
2021/03/02 09:27:27;;;;;;;16.63;11.53;;;;;;;4.29;83.20;102883.47;5072701;28;20198;-67
2021/03/02 09:29:53;;;;;;;22.93;12.77;;;;;;;4.46;83.47;102876.53;5073858;28;20540;-69
2021/03/02 09:32:29;;;;;;;19.37;14.23;;;;;;;4.60;81.62;102881.88;5073686;28;20191;-68
2021/03/02 09:35:02;;;;;;;32.83;14.07;;;;;;;4.63;81.74;102881.88;5073904;28;20251;-68
2021/03/02 09:37:28;;;;;;;21.10;13.50;;;;;;;4.71;82.31;102878.38;5055959;28;20201;-68
2021/03/02 09:39:54;;;;;;;19.50;13.53;;;;;;;4.96;81.55;102875.81;5073852;28;20202;-68
2021/03/02 09:42:21;;;;;;;20.70;15.07;;;;;;;5.08;80.94;102875.84;5073785;28;20635;-69
2021/03/02 09:44:52;;;;;;;23.27;15.30;;;;;;;5.19;81.83;102878.50;5055824;28;20211;-68
2021/03/02 09:47:24;;;;;;;20.57;14.17;;;;;;;5.29;80.55;102875.91;5074063;28;20155;-68
2021/03/02 09:49:55;;;;;;;19.40;13.67;;;;;;;5.34;80.49;102881.19;5072552;28;20160;-68
2021/03/02 09:52:20;;;;;;;22.70;15.10;;;;;;;5.35;80.58;102880.31;5073439;28;20248;-68
2021/03/02 09:55:18;;;;;;;19.60;13.00;;;;;;;5.38;80.26;102874.13;5073639;28;20171;-68
2021/03/02 09:57:50;;;;;;;18.63;14.03;;;;;;;5.26;79.12;102883.84;5073768;28;20270;-68
2021/03/02 10:00:17;;;;;;;59.33;16.83;;;;;;;5.22;78.96;102887.38;5073724;28;20171;-68
2021/03/02 10:02:55;;;;;;;119.30;17.10;;;;;;;5.19;78.67;102887.31;5071877;28;20182;-69
2021/03/02 10:05:39;;;;;;;19.00;13.00;;;;;;;5.40;78.06;102882.97;5072024;28;20753;-69
2021/03/02 10:08:24;;;;;;;21.53;15.00;;;;;;;5.53;80.02;102885.59;5072302;28;20163;-69
2021/03/02 10:10:50;;;;;;;38.20;16.00;;;;;;;5.51;80.35;102892.69;5072130;28;20253;-69
2021/03/02 10:13:23;;;;;;;24.37;14.73;;;;;;;5.62;80.04;102885.63;5073545;28;20205;-69
2021/03/02 10:15:48;;;;;;;18.97;12.90;;;;;;;5.80;79.27;102889.16;5072307;28;20751;-68
2021/03/02 10:18:24;;;;;;;19.43;13.57;;;;;;;5.85;79.43;102893.56;5074091;28;20171;-67
2021/03/02 10:21:07;;;;;;;22.47;15.43;;;;;;;6.11;77.51;102893.56;5072676;28;20181;-67
2021/03/02 10:23:33;;;;;;;20.70;13.50;;;;;;;5.93;77.70;102889.16;5072178;28;20216;-67
2021/03/02 10:25:59;;;;;;;16.80;12.03;;;;;;;6.22;78.33;102896.19;5072972;28;20280;-68
2021/03/02 10:28:34;;;;;;;19.53;13.47;;;;;;;6.47;76.74;102889.06;5072321;28;20184;-68
2021/03/02 10:30:59;;;;;;;50.27;18.77;;;;;;;6.25;75.61;102896.19;5073331;28;20530;-68
2021/03/02 10:33:25;;;;;;;19.93;13.27;;;;;;;6.39;75.62;102893.53;5073134;28;20201;-68
2021/03/02 10:35:50;;;;;;;18.03;14.03;;;;;;;6.48;76.39;102899.66;5071754;28;20715;-68
2021/03/02 10:38:16;;;;;;;18.93;13.47;;;;;;;6.57;75.09;102891.69;5073545;28;20231;-69
2021/03/02 10:40:41;;;;;;;19.53;13.73;;;;;;;6.70;75.71;102891.66;5073433;28;20228;-68
2021/03/02 10:43:06;;;;;;;13.57;10.47;;;;;;;7.02;74.76;102883.50;5073206;28;20658;-68
2021/03/02 10:45:31;;;;;;;19.13;12.07;;;;;;;7.31;72.15;102880.66;5072193;28;20217;-69
2021/03/02 10:47:57;;;;;;;19.07;13.47;;;;;;;7.45;71.03;102889.44;5071909;28;20186;-68
2021/03/02 10:50:22;;;;;;;19.80;14.53;;;;;;;7.25;71.27;102886.03;5072609;28;20581;-68
2021/03/02 10:52:47;;;;;;;19.93;13.23;;;;;;;7.27;71.25;102886.91;5072896;28;20197;-68
2021/03/02 10:55:13;;;;;;;20.27;13.97;;;;;;;7.57;69.94;102886.69;5072835;28;20208;-68
2021/03/02 10:57:38;;;;;;;19.80;13.77;;;;;;;7.88;69.60;102883.78;5073069;28;20183;-72
2021/03/02 11:00:04;;;;;;;19.90;13.70;;;;;;;7.88;69.75;102881.09;5074688;28;20231;-72
2021/03/02 11:02:30;;;;;;;21.00;13.40;;;;;;;7.79;69.95;102871.41;5071936;28;20197;-71
2021/03/02 11:04:55;;;;;;;17.63;12.83;;;;;;;7.83;69.34;102868.75;5055077;28;20544;-72
2021/03/02 11:07:20;;;;;;;25.97;17.50;;;;;;;7.73;69.18;102876.78;5073426;28;20169;-72
2021/03/02 11:09:46;;;;;;;22.27;14.27;;;;;;;7.82;70.45;102874.06;5073830;28;20236;-70
2021/03/02 11:12:11;;;;;;;20.43;14.50;;;;;;;7.65;69.34;102870.66;5073459;28;20206;-71
2021/03/02 11:14:36;;;;;;;15.87;11.70;;;;;;;8.07;69.17;102878.25;5072154;28;20243;-70
2021/03/02 11:17:01;;;;;;;15.93;12.53;;;;;;;8.26;68.72;102867.44;5073037;28;20671;-72
2021/03/02 11:19:27;;;;;;;19.43;13.67;;;;;;;8.68;66.99;102858.06;5072163;28;20197;-72
2021/03/02 11:21:52;;;;;;;20.67;14.50;;;;;;;9.16;63.78;102860.94;5073033;28;20183;-70
2021/03/02 11:24:18;;;;;;;17.33;12.90;;;;;;;8.81;64.99;102859.66;5073609;28;20186;-72